createdAt,value
2019-02-22T00:00:25.096Z,1020.13
2019-02-22T00:01:25.395Z,1020.17
2019-02-22T00:02:25.049Z,1020.19
2019-02-22T00:05:25.008Z,1020.29
2019-02-22T00:07:25.493Z,1020.26
2019-02-22T00:08:24.876Z,1020.28
2019-02-22T00:09:24.850Z,1020.31
2019-02-22T00:10:24.839Z,1020.32
2019-02-22T00:11:24.937Z,1020.34
2019-02-22T00:12:24.938Z,1020.31
2019-02-22T00:13:25.057Z,1020.30
2019-02-22T00:14:24.760Z,1020.35
2019-02-22T00:16:24.878Z,1020.40
2019-02-22T00:17:24.827Z,1020.48
2019-02-22T00:18:24.649Z,1020.48
2019-02-22T00:19:24.638Z,1020.53
2019-02-22T00:21:24.893Z,1020.54
2019-02-22T00:22:24.748Z,1020.59
2019-02-22T00:23:24.622Z,1020.57
2019-02-22T00:24:24.538Z,1020.60
2019-02-22T00:25:24.562Z,1020.60
2019-02-22T00:27:24.451Z,1020.65
2019-02-22T00:29:24.781Z,1020.70
2019-02-22T00:30:24.612Z,1020.71
2019-02-22T00:31:24.362Z,1020.75
2019-02-22T00:32:25.740Z,1020.76
2019-02-22T00:33:24.339Z,1020.83
2019-02-22T00:35:24.958Z,1020.87
2019-02-22T00:36:24.388Z,1020.85
2019-02-22T00:37:24.269Z,1020.88
2019-02-22T00:38:26.974Z,1020.90
2019-02-22T00:40:24.208Z,1020.92
2019-02-22T00:42:24.487Z,1020.88
2019-02-22T00:44:24.097Z,1020.96
2019-02-22T00:45:24.231Z,1020.94
2019-02-22T00:46:24.313Z,1020.99
2019-02-22T00:47:24.086Z,1020.93
2019-02-22T00:48:24.207Z,1020.96
2019-02-22T00:49:24.282Z,1020.97
2019-02-22T00:51:23.931Z,1020.93
2019-02-22T00:52:24.037Z,1020.95
2019-02-22T00:54:23.923Z,1021.00
2019-02-22T00:55:24.405Z,1020.99
2019-02-22T00:57:24.175Z,1021.04
2019-02-22T01:00:23.791Z,1021.06
2019-02-22T01:02:23.704Z,1021.06
2019-02-22T01:05:24.089Z,1021.12
2019-02-22T01:06:23.697Z,1021.15
2019-02-22T01:07:23.781Z,1021.20
2019-02-22T01:08:23.674Z,1021.17
2019-02-22T01:09:23.650Z,1021.23
2019-02-22T01:10:31.280Z,1021.24
2019-02-22T01:11:23.635Z,1021.28
2019-02-22T01:12:23.660Z,1021.25
2019-02-22T01:13:23.614Z,1021.31
2019-02-22T01:15:23.559Z,1021.34
2019-02-22T01:16:23.475Z,1021.41
2019-02-22T01:17:24.139Z,1021.43
2019-02-22T01:19:23.509Z,1021.44
2019-02-22T01:20:23.413Z,1021.46
2019-02-22T01:21:23.416Z,1021.41
2019-02-22T01:22:23.809Z,1021.39
2019-02-22T01:23:23.693Z,1021.45
2019-02-22T01:24:23.329Z,1021.51
2019-02-22T01:25:24.210Z,1021.52
2019-02-22T01:26:23.263Z,1021.49
2019-02-22T01:27:23.374Z,1021.56
2019-02-22T01:28:24.483Z,1021.54
2019-02-22T01:29:23.859Z,1021.62
2019-02-22T01:30:23.601Z,1021.66
2019-02-22T01:31:23.702Z,1021.69
2019-02-22T01:32:24.019Z,1021.69
2019-02-22T01:33:23.693Z,1021.77
2019-02-22T01:35:23.623Z,1021.81
2019-02-22T01:36:23.125Z,1021.83
2019-02-22T01:37:23.118Z,1021.86
2019-02-22T01:38:22.920Z,1021.89
2019-02-22T01:39:22.979Z,1021.87
2019-02-22T01:40:22.922Z,1021.90
2019-02-22T01:41:23.170Z,1021.88
2019-02-22T01:42:22.832Z,1021.84
2019-02-22T01:43:22.851Z,1021.89
2019-02-22T01:44:22.896Z,1021.92
2019-02-22T01:45:22.756Z,1021.94
2019-02-22T01:47:23.012Z,1022.00
2019-02-22T01:48:22.688Z,1021.96
2019-02-22T01:49:22.925Z,1021.96
2019-02-22T01:50:22.647Z,1021.97
2019-02-22T01:51:22.626Z,1021.99
2019-02-22T01:53:22.975Z,1022.01
2019-02-22T01:55:22.740Z,1022.01
2019-02-22T01:59:22.882Z,1022.03
2019-02-22T02:01:22.523Z,1022.04
2019-02-22T02:08:22.671Z,1022.09
2019-02-22T02:09:22.243Z,1022.07
2019-02-22T02:10:22.246Z,1022.06
2019-02-22T02:11:22.182Z,1022.08
2019-02-22T02:12:22.189Z,1022.02
2019-02-22T02:13:22.244Z,1022.09
2019-02-22T02:14:22.322Z,1022.09
2019-02-22T02:15:22.440Z,1022.11
2019-02-22T02:16:22.077Z,1022.11
2019-02-22T02:17:22.040Z,1022.15
2019-02-22T02:18:22.139Z,1022.17
2019-02-22T02:19:21.995Z,1022.15
2019-02-22T02:20:22.140Z,1022.17
2019-02-22T02:21:22.045Z,1022.16
2019-02-22T02:22:21.990Z,1022.21
2019-02-22T02:23:21.927Z,1022.19
2019-02-22T02:24:21.975Z,1022.23
2019-02-22T02:25:22.020Z,1022.24
2019-02-22T02:26:22.113Z,1022.29
2019-02-22T02:27:21.862Z,1022.30
2019-02-22T02:28:22.096Z,1022.30
2019-02-22T02:29:21.783Z,1022.35
2019-02-22T02:30:22.161Z,1022.40
2019-02-22T02:31:21.765Z,1022.42
2019-02-22T02:32:21.788Z,1022.41
2019-02-22T02:34:22.218Z,1022.38
2019-02-22T02:36:21.633Z,1022.38
2019-02-22T02:37:21.643Z,1022.39
2019-02-22T02:38:21.646Z,1022.36
2019-02-22T02:39:21.554Z,1022.31
2019-02-22T02:40:21.843Z,1022.39
2019-02-22T02:43:21.483Z,1022.39
2019-02-22T02:44:21.501Z,1022.41
2019-02-22T02:45:21.461Z,1022.43
2019-02-22T02:46:21.721Z,1022.46
2019-02-22T02:47:21.530Z,1022.51
2019-02-22T02:48:21.379Z,1022.51
2019-02-22T02:50:21.382Z,1022.52
2019-02-22T02:51:21.292Z,1022.53
2019-02-22T02:52:21.591Z,1022.54
2019-02-22T02:53:21.487Z,1022.52
2019-02-22T02:55:21.207Z,1022.53
2019-02-22T02:57:21.227Z,1022.60
2019-02-22T02:58:21.176Z,1022.64
2019-02-22T03:00:21.893Z,1022.68
2019-02-22T03:01:22.888Z,1022.69
2019-02-22T03:03:22.349Z,1022.79
2019-02-22T03:04:21.020Z,1022.79
2019-02-22T03:06:21.427Z,1022.81
2019-02-22T03:08:20.925Z,1022.86
2019-02-22T03:09:21.393Z,1022.83
2019-02-22T03:12:21.243Z,1022.75
2019-02-22T03:13:20.821Z,1022.79
2019-02-22T03:14:20.897Z,1022.81
2019-02-22T03:15:23.736Z,1022.84
2019-02-22T03:16:22.149Z,1022.83
2019-02-22T03:17:21.025Z,1022.85
2019-02-22T03:18:20.707Z,1022.85
2019-02-22T03:19:21.077Z,1022.87
2019-02-22T03:20:20.938Z,1022.86
2019-02-22T03:21:21.038Z,1022.92
2019-02-22T03:22:20.676Z,1022.97
2019-02-22T03:23:20.703Z,1023.05
2019-02-22T03:24:20.745Z,1023.01
2019-02-22T03:25:20.545Z,1023.04
2019-02-22T03:26:20.832Z,1023.01
2019-02-22T03:28:20.518Z,1022.99
2019-02-22T03:29:20.551Z,1023.01
2019-02-22T03:31:20.429Z,1023.08
2019-02-22T03:32:20.492Z,1023.10
2019-02-22T03:34:20.820Z,1023.12
2019-02-22T03:36:20.526Z,1023.09
2019-02-22T03:37:20.426Z,1023.09
2019-02-22T03:38:20.250Z,1023.10
2019-02-22T03:39:20.340Z,1023.15
2019-02-22T03:40:20.276Z,1023.20
2019-02-22T03:41:31.888Z,1023.20
2019-02-22T03:42:20.159Z,1023.21
2019-02-22T03:43:20.315Z,1023.21
2019-02-22T03:44:20.127Z,1023.26
2019-02-22T03:45:20.408Z,1023.24
2019-02-22T03:46:20.138Z,1023.27
2019-02-22T03:47:20.202Z,1023.35
2019-02-22T03:48:20.366Z,1023.36
2019-02-22T03:49:20.032Z,1023.34
2019-02-22T03:51:19.991Z,1023.40
2019-02-22T03:52:20.121Z,1023.39
2019-02-22T03:53:20.140Z,1023.39
2019-02-22T03:54:20.124Z,1023.43
2019-02-22T03:55:20.401Z,1023.49
2019-02-22T03:56:19.982Z,1023.44
2019-02-22T03:57:19.964Z,1023.46
2019-02-22T03:58:19.982Z,1023.51
2019-02-22T03:59:19.913Z,1023.54
2019-02-22T04:02:20.147Z,1023.55
2019-02-22T04:06:19.681Z,1023.65
2019-02-22T04:07:19.724Z,1023.71
2019-02-22T04:09:20.287Z,1023.73
2019-02-22T04:14:19.452Z,1023.78
2019-02-22T04:15:19.484Z,1023.81
2019-02-22T04:16:19.476Z,1023.81
2019-02-22T04:17:19.397Z,1023.85
2019-02-22T04:18:19.426Z,1023.84
2019-02-22T04:19:19.339Z,1023.83
2019-02-22T04:20:19.322Z,1023.89
2019-02-22T04:21:19.303Z,1023.89
2019-02-22T04:22:19.675Z,1023.88
2019-02-22T04:23:19.551Z,1023.95
2019-02-22T04:24:25.556Z,1023.95
2019-02-22T04:25:19.227Z,1023.95
2019-02-22T04:26:19.194Z,1023.95
2019-02-22T04:28:19.472Z,1023.99
2019-02-22T04:29:19.498Z,1024.02
2019-02-22T04:30:19.170Z,1023.98
2019-02-22T04:31:19.091Z,1024.01
2019-02-22T04:32:19.053Z,1024.03
2019-02-22T04:33:19.092Z,1024.03
2019-02-22T04:35:19.290Z,1024.06
2019-02-22T04:36:19.032Z,1024.08
2019-02-22T04:37:18.947Z,1024.08
2019-02-22T04:38:18.992Z,1024.08
2019-02-22T04:39:18.900Z,1024.07
2019-02-22T04:40:18.881Z,1024.09
2019-02-22T04:41:18.918Z,1024.11
2019-02-22T04:42:22.426Z,1024.08
2019-02-22T04:46:18.745Z,1024.13
2019-02-22T04:47:18.749Z,1024.17
2019-02-22T04:49:18.981Z,1024.15
2019-02-22T04:50:18.662Z,1024.19
2019-02-22T04:51:23.689Z,1024.21
2019-02-22T04:53:18.595Z,1024.25
2019-02-22T04:54:18.619Z,1024.23
2019-02-22T04:55:18.666Z,1024.22
2019-02-22T04:57:18.513Z,1024.26
2019-02-22T04:58:18.855Z,1024.31
2019-02-22T04:59:18.484Z,1024.35
2019-02-22T05:00:18.792Z,1024.33
2019-02-22T05:01:18.420Z,1024.31
2019-02-22T05:02:18.398Z,1024.33
2019-02-22T05:03:18.681Z,1024.36
2019-02-22T05:04:18.473Z,1024.36
2019-02-22T05:05:18.329Z,1024.39
2019-02-22T05:06:18.395Z,1024.40
2019-02-22T05:07:18.297Z,1024.39
2019-02-22T05:09:18.551Z,1024.46
2019-02-22T05:10:18.731Z,1024.47
2019-02-22T05:13:18.202Z,1024.52
2019-02-22T05:15:18.435Z,1024.53
2019-02-22T05:16:18.084Z,1024.60
2019-02-22T05:18:18.056Z,1024.62
2019-02-22T05:19:18.069Z,1024.64
2019-02-22T05:20:17.998Z,1024.68
2019-02-22T05:21:18.276Z,1024.72
2019-02-22T05:22:17.978Z,1024.75
2019-02-22T05:23:17.924Z,1024.74
2019-02-22T05:24:17.905Z,1024.77
2019-02-22T05:26:17.972Z,1024.78
2019-02-22T05:27:17.948Z,1024.77
2019-02-22T05:28:18.223Z,1024.82
2019-02-22T05:29:17.806Z,1024.82
2019-02-22T05:30:17.767Z,1024.83
2019-02-22T05:31:17.775Z,1024.81
2019-02-22T05:32:17.980Z,1024.86
2019-02-22T05:33:17.817Z,1024.86
2019-02-22T05:34:17.985Z,1024.89
2019-02-22T05:36:19.263Z,1024.86
2019-02-22T05:37:17.773Z,1024.89
2019-02-22T05:39:19.417Z,1024.93
2019-02-22T05:40:19.223Z,1024.95
2019-02-22T05:41:18.333Z,1024.97
2019-02-22T05:42:22.792Z,1024.98
2019-02-22T05:43:17.484Z,1024.99
2019-02-22T05:44:17.573Z,1025.02
2019-02-22T05:45:17.604Z,1025.07
2019-02-22T05:47:17.690Z,1025.12
2019-02-22T05:48:17.728Z,1025.16
2019-02-22T05:49:17.464Z,1025.21
2019-02-22T05:50:17.322Z,1025.18
2019-02-22T05:51:18.114Z,1025.23
2019-02-22T05:52:18.094Z,1025.23
2019-02-22T05:53:18.269Z,1025.26
2019-02-22T05:54:17.300Z,1025.25
2019-02-22T05:55:17.232Z,1025.31
2019-02-22T05:56:17.388Z,1025.29
2019-02-22T05:57:17.231Z,1025.30
2019-02-22T05:58:17.280Z,1025.35
2019-02-22T05:59:17.504Z,1025.37
2019-02-22T06:00:17.106Z,1025.36
2019-02-22T06:01:17.097Z,1025.38
2019-02-22T06:02:17.057Z,1025.42
2019-02-22T06:03:17.041Z,1025.38
2019-02-22T06:06:17.265Z,1025.45
2019-02-22T06:07:16.965Z,1025.46
2019-02-22T06:08:16.929Z,1025.45
2019-02-22T06:09:16.971Z,1025.46
2019-02-22T06:10:16.942Z,1025.46
2019-02-22T06:11:16.888Z,1025.50
2019-02-22T06:12:18.662Z,1025.53
2019-02-22T06:14:17.107Z,1025.55
2019-02-22T06:15:16.839Z,1025.58
2019-02-22T06:16:17.358Z,1025.59
2019-02-22T06:17:17.068Z,1025.64
2019-02-22T06:18:16.735Z,1025.67
2019-02-22T06:19:16.794Z,1025.70
2019-02-22T06:20:16.713Z,1025.71
2019-02-22T06:21:17.021Z,1025.74
2019-02-22T06:22:28.741Z,1025.74
2019-02-22T06:23:16.686Z,1025.75
2019-02-22T06:24:16.578Z,1025.77
2019-02-22T06:26:16.684Z,1025.80
2019-02-22T06:28:16.488Z,1025.81
2019-02-22T06:29:16.472Z,1025.84
2019-02-22T06:30:16.430Z,1025.85
2019-02-22T06:31:16.402Z,1025.84
2019-02-22T06:32:16.411Z,1025.89
2019-02-22T06:33:16.711Z,1025.92
2019-02-22T06:34:16.558Z,1025.89
2019-02-22T06:35:16.415Z,1025.95
2019-02-22T06:36:16.426Z,1025.95
2019-02-22T06:37:16.512Z,1025.95
2019-02-22T06:38:16.356Z,1025.94
2019-02-22T06:39:16.656Z,1025.94
2019-02-22T06:40:16.345Z,1025.99
2019-02-22T06:41:16.292Z,1026.04
2019-02-22T06:42:16.257Z,1026.08
2019-02-22T06:43:16.195Z,1026.07
2019-02-22T06:44:16.135Z,1026.10
2019-02-22T06:45:16.619Z,1026.16
2019-02-22T06:46:16.096Z,1026.17
2019-02-22T06:50:16.314Z,1026.24
2019-02-22T06:52:15.957Z,1026.33
2019-02-22T06:53:15.912Z,1026.34
2019-02-22T06:54:15.911Z,1026.36
2019-02-22T06:55:15.871Z,1026.37
2019-02-22T06:56:15.845Z,1026.40
2019-02-22T06:58:16.169Z,1026.44
2019-02-22T06:59:15.995Z,1026.45
2019-02-22T07:01:16.748Z,1026.49
2019-02-22T07:02:15.733Z,1026.50
2019-02-22T07:03:15.692Z,1026.53
2019-02-22T07:04:16.017Z,1026.51
2019-02-22T07:05:15.704Z,1026.52
2019-02-22T07:06:15.636Z,1026.57
2019-02-22T07:07:15.719Z,1026.58
2019-02-22T07:12:15.602Z,1026.67
2019-02-22T07:13:15.467Z,1026.67
2019-02-22T07:14:15.825Z,1026.66
2019-02-22T07:15:15.461Z,1026.70
2019-02-22T07:16:15.747Z,1026.70
2019-02-22T07:17:15.404Z,1026.74
2019-02-22T07:19:15.328Z,1026.78
2019-02-22T07:22:16.067Z,1026.84
2019-02-22T07:24:16.180Z,1026.94
2019-02-22T07:25:15.351Z,1026.94
2019-02-22T07:27:15.237Z,1027.04
2019-02-22T07:29:15.266Z,1027.10
2019-02-22T07:30:15.174Z,1027.18
2019-02-22T07:32:15.175Z,1027.24
2019-02-22T07:33:15.256Z,1027.27
2019-02-22T07:34:15.502Z,1027.33
2019-02-22T07:35:15.352Z,1027.32
2019-02-22T07:36:15.159Z,1027.33
2019-02-22T07:37:14.943Z,1027.36
2019-02-22T07:38:14.905Z,1027.37
2019-02-22T07:39:26.847Z,1027.43
2019-02-22T07:40:15.206Z,1027.44
2019-02-22T07:41:14.913Z,1027.45
2019-02-22T07:42:14.884Z,1027.40
2019-02-22T07:43:14.838Z,1027.44
2019-02-22T07:44:14.926Z,1027.42
2019-02-22T07:45:14.823Z,1027.44
2019-02-22T07:46:14.780Z,1027.48
2019-02-22T07:47:15.004Z,1027.54
2019-02-22T07:48:14.771Z,1027.53
2019-02-22T07:49:14.717Z,1027.57
2019-02-22T07:50:15.479Z,1027.57
2019-02-22T07:51:14.679Z,1027.68
2019-02-22T07:52:14.637Z,1027.73
2019-02-22T07:53:14.989Z,1027.73
2019-02-22T07:54:14.620Z,1027.79
2019-02-22T07:55:14.626Z,1027.79
2019-02-22T07:57:14.583Z,1027.87
2019-02-22T07:58:14.643Z,1027.94
2019-02-22T07:59:14.747Z,1027.95
2019-02-22T08:00:15.077Z,1027.99
2019-02-22T08:01:14.462Z,1027.99
2019-02-22T08:02:14.479Z,1028.01
2019-02-22T08:03:14.381Z,1028.09
2019-02-22T08:04:14.397Z,1028.08
2019-02-22T08:05:14.642Z,1028.12
2019-02-22T08:06:14.274Z,1028.12
2019-02-22T08:07:14.262Z,1028.18
2019-02-22T08:11:14.494Z,1028.31
2019-02-22T08:12:14.135Z,1028.34
2019-02-22T08:13:19.797Z,1028.34
2019-02-22T08:15:14.076Z,1028.39
2019-02-22T08:16:14.128Z,1028.42
2019-02-22T08:17:15.011Z,1028.47
2019-02-22T08:18:14.097Z,1028.47
2019-02-22T08:19:14.080Z,1028.50
2019-02-22T08:21:14.617Z,1028.55
2019-02-22T08:22:14.514Z,1028.59
2019-02-22T08:23:14.177Z,1028.63
2019-02-22T08:24:14.345Z,1028.61
2019-02-22T08:25:13.832Z,1028.69
2019-02-22T08:26:13.823Z,1028.73
2019-02-22T08:27:13.799Z,1028.76
2019-02-22T08:28:13.960Z,1028.75
2019-02-22T08:29:14.044Z,1028.77
2019-02-22T08:30:13.730Z,1028.77
2019-02-22T08:31:13.701Z,1028.79
2019-02-22T08:32:13.689Z,1028.81
2019-02-22T08:33:13.658Z,1028.82
2019-02-22T08:34:13.680Z,1028.89
2019-02-22T08:35:13.909Z,1028.85
2019-02-22T08:36:13.593Z,1028.90
2019-02-22T08:37:13.658Z,1028.94
2019-02-22T08:38:13.610Z,1028.95
2019-02-22T08:39:13.573Z,1028.96
2019-02-22T08:40:13.546Z,1028.95
2019-02-22T08:41:13.778Z,1028.96
2019-02-22T08:42:13.446Z,1028.98
2019-02-22T08:43:13.415Z,1028.98
2019-02-22T08:44:13.412Z,1029.05
2019-02-22T08:45:13.362Z,1029.06
2019-02-22T08:46:13.493Z,1029.13
2019-02-22T08:47:13.628Z,1029.11
2019-02-22T08:48:13.296Z,1029.15
2019-02-22T08:49:13.327Z,1029.12
2019-02-22T08:50:14.514Z,1029.13
2019-02-22T08:51:13.236Z,1029.15
2019-02-22T08:52:13.350Z,1029.14
2019-02-22T08:54:13.187Z,1029.19
2019-02-22T08:56:13.115Z,1029.21
2019-02-22T08:57:13.108Z,1029.23
2019-02-22T08:58:13.166Z,1029.24
2019-02-22T08:59:13.474Z,1029.24
2019-02-22T09:00:13.035Z,1029.28
2019-02-22T09:01:13.337Z,1029.24
2019-02-22T09:02:13.148Z,1029.29
2019-02-22T09:03:12.949Z,1029.31
2019-02-22T09:04:13.366Z,1029.38
2019-02-22T09:05:13.370Z,1029.38
2019-02-22T09:06:12.875Z,1029.42
2019-02-22T09:07:12.949Z,1029.43
2019-02-22T09:08:12.833Z,1029.48
2019-02-22T09:09:12.815Z,1029.59
2019-02-22T09:10:13.219Z,1029.61
2019-02-22T09:11:13.164Z,1029.68
2019-02-22T09:12:12.750Z,1029.69
2019-02-22T09:13:12.802Z,1029.65
2019-02-22T09:14:12.747Z,1029.76
2019-02-22T09:15:12.683Z,1029.73
2019-02-22T09:17:13.473Z,1029.87
2019-02-22T09:18:18.907Z,1029.93
2019-02-22T09:19:12.622Z,1029.94
2019-02-22T09:20:12.554Z,1030.03
2019-02-22T09:21:12.662Z,1030.01
2019-02-22T09:22:22.435Z,1030.04
2019-02-22T09:23:12.896Z,1030.05
2019-02-22T09:25:12.473Z,1030.06
2019-02-22T09:26:12.444Z,1030.10
2019-02-22T09:27:12.414Z,1030.12
2019-02-22T09:28:12.366Z,1030.16
2019-02-22T09:29:12.715Z,1030.18
2019-02-22T09:30:12.336Z,1030.18
2019-02-22T09:31:12.342Z,1030.23
2019-02-22T09:32:12.305Z,1030.24
2019-02-22T09:33:12.300Z,1030.35
2019-02-22T09:35:12.572Z,1030.44
2019-02-22T09:36:12.206Z,1030.44
2019-02-22T09:37:12.188Z,1030.38
2019-02-22T09:38:12.161Z,1030.37
2019-02-22T09:39:12.123Z,1030.39
2019-02-22T09:40:14.704Z,1030.44
2019-02-22T09:41:12.879Z,1030.45
2019-02-22T09:42:12.156Z,1030.55
2019-02-22T09:43:12.145Z,1030.52
2019-02-22T09:44:12.186Z,1030.50
2019-02-22T09:45:12.285Z,1030.50
2019-02-22T09:46:12.258Z,1030.56
2019-02-22T09:47:13.628Z,1030.62
2019-02-22T09:48:11.954Z,1030.62
2019-02-22T09:49:11.907Z,1030.64
2019-02-22T09:50:11.889Z,1030.63
2019-02-22T09:51:12.125Z,1030.65
2019-02-22T09:52:11.858Z,1030.67
2019-02-22T09:53:12.405Z,1030.69
2019-02-22T09:54:11.839Z,1030.67
2019-02-22T09:55:11.906Z,1030.71
2019-02-22T09:56:11.978Z,1030.68
2019-02-22T09:57:12.216Z,1030.71
2019-02-22T09:58:11.688Z,1030.72
2019-02-22T09:59:12.221Z,1030.74
2019-02-22T10:00:11.660Z,1030.75
2019-02-22T10:01:11.725Z,1030.79
2019-02-22T10:02:12.971Z,1030.85
2019-02-22T10:03:11.674Z,1030.81
2019-02-22T10:04:11.754Z,1030.80
2019-02-22T10:05:12.252Z,1030.83
2019-02-22T10:06:11.534Z,1030.84
2019-02-22T10:07:11.494Z,1030.84
2019-02-22T10:08:11.760Z,1030.80
2019-02-22T10:09:11.439Z,1030.83
2019-02-22T10:10:11.578Z,1030.84
2019-02-22T10:11:11.802Z,1030.87
2019-02-22T10:12:11.368Z,1030.89
2019-02-22T10:14:11.343Z,1030.78
2019-02-22T10:15:11.348Z,1030.81
2019-02-22T10:17:12.375Z,1030.87
2019-02-22T10:18:11.341Z,1030.87
2019-02-22T10:19:11.222Z,1030.95
2019-02-22T10:20:11.216Z,1031.00
2019-02-22T10:21:11.181Z,1031.06
2019-02-22T10:22:11.259Z,1031.37
2019-02-22T10:23:11.612Z,1031.52
2019-02-22T10:24:11.199Z,1032.08
2019-02-22T10:26:11.492Z,1031.64
2019-02-22T10:28:17.723Z,1032.21
2019-02-22T10:29:11.612Z,1032.34
2019-02-22T10:30:11.074Z,1032.43
2019-02-22T10:31:11.282Z,1032.51
2019-02-22T10:32:10.999Z,1032.73
2019-02-22T10:33:11.007Z,1033.35
2019-02-22T10:34:10.899Z,1033.38
2019-02-22T10:37:10.929Z,1032.31
2019-02-22T10:38:11.720Z,1032.38
2019-02-22T10:39:11.089Z,1032.34
2019-02-22T10:40:10.940Z,1032.23
2019-02-22T10:41:11.134Z,1031.84
2019-02-22T10:42:10.769Z,1031.87
2019-02-22T10:43:10.807Z,1032.14
2019-02-22T10:44:17.730Z,1031.87
2019-02-22T10:46:11.378Z,1032.06
2019-02-22T10:48:11.028Z,1031.99
2019-02-22T10:49:10.629Z,1031.92
2019-02-22T10:50:10.622Z,1032.37
2019-02-22T10:51:10.592Z,1032.29
2019-02-22T10:52:10.669Z,1032.90
2019-02-22T10:53:10.564Z,1032.68
2019-02-22T10:54:10.894Z,1032.49
2019-02-22T10:55:10.590Z,1032.43
2019-02-22T10:56:10.508Z,1032.52
2019-02-22T10:57:10.484Z,1032.58
2019-02-22T10:58:10.469Z,1032.49
2019-02-22T10:59:10.474Z,1032.35
2019-02-22T11:00:11.086Z,1032.31
2019-02-22T11:01:10.481Z,1032.28
2019-02-22T11:02:10.921Z,1032.22
2019-02-22T11:03:11.128Z,1032.20
2019-02-22T11:04:11.929Z,1032.16
2019-02-22T11:05:10.547Z,1032.18
2019-02-22T11:06:10.810Z,1032.09
2019-02-22T11:07:10.409Z,1032.11
2019-02-22T11:08:10.332Z,1032.08
2019-02-22T11:10:10.343Z,1032.12
2019-02-22T11:11:10.302Z,1032.12
2019-02-22T11:12:10.636Z,1032.19
2019-02-22T11:13:10.316Z,1032.25
2019-02-22T11:14:10.258Z,1032.33
2019-02-22T11:15:10.244Z,1032.41
2019-02-22T11:16:10.278Z,1032.42
2019-02-22T11:17:10.273Z,1032.26
2019-02-22T11:18:10.657Z,1032.18
2019-02-22T11:19:10.207Z,1032.13
2019-02-22T11:20:10.303Z,1032.05
2019-02-22T11:21:10.174Z,1032.06
2019-02-22T11:22:10.289Z,1032.04
2019-02-22T11:23:10.246Z,1032.00
2019-02-22T11:24:11.052Z,1032.02
2019-02-22T11:25:10.430Z,1031.97
2019-02-22T11:26:11.643Z,1031.98
2019-02-22T11:27:10.091Z,1032.00
2019-02-22T11:28:10.556Z,1032.06
2019-02-22T11:32:10.556Z,1032.14
2019-02-22T11:33:10.047Z,1032.15
2019-02-22T11:34:10.090Z,1032.10
2019-02-22T11:35:10.103Z,1032.09
2019-02-22T11:36:10.136Z,1032.05
2019-02-22T11:37:09.968Z,1032.05
2019-02-22T11:38:10.291Z,1032.07
2019-02-22T11:39:09.989Z,1032.07
2019-02-22T11:40:09.908Z,1032.17
2019-02-22T11:41:09.943Z,1032.40
2019-02-22T11:42:09.904Z,1032.29
2019-02-22T11:43:10.033Z,1032.42
2019-02-22T11:44:10.220Z,1032.50
2019-02-22T11:45:10.041Z,1032.45
2019-02-22T11:46:10.008Z,1032.27
2019-02-22T11:47:09.954Z,1031.98
2019-02-22T11:48:09.883Z,1032.28
2019-02-22T11:49:09.802Z,1032.21
2019-02-22T11:50:10.169Z,1032.35
2019-02-22T11:51:09.783Z,1032.31
2019-02-22T11:52:09.940Z,1032.25
2019-02-22T11:53:09.758Z,1032.43
2019-02-22T11:54:09.894Z,1032.47
2019-02-22T11:55:09.818Z,1032.50
2019-02-22T11:56:10.214Z,1032.42
2019-02-22T11:57:11.509Z,1032.50
2019-02-22T11:58:10.112Z,1032.55
2019-02-22T11:59:09.827Z,1032.60
2019-02-22T12:00:10.157Z,1032.67
2019-02-22T12:01:09.726Z,1032.75
2019-02-22T12:02:10.200Z,1032.74
2019-02-22T12:03:23.662Z,1032.88
2019-02-22T12:04:09.618Z,1032.16
2019-02-22T12:05:09.698Z,1032.36
2019-02-22T12:06:09.728Z,1032.29
2019-02-22T12:07:09.584Z,1032.11
2019-02-22T12:08:10.240Z,1032.79
2019-02-22T12:09:09.574Z,1032.27
2019-02-22T12:10:09.578Z,1032.24
2019-02-22T12:11:09.591Z,1032.57
2019-02-22T12:14:09.655Z,1032.29
2019-02-22T12:15:10.315Z,1032.35
2019-02-22T12:16:09.570Z,1032.26
2019-02-22T12:20:09.714Z,1032.74
2019-02-22T12:21:09.390Z,1032.86
2019-02-22T12:22:09.437Z,1032.96
2019-02-22T12:23:09.364Z,1033.02
2019-02-22T12:24:09.340Z,1033.05
2019-02-22T12:27:09.549Z,1033.00
2019-02-22T12:28:09.290Z,1033.05
2019-02-22T12:31:09.281Z,1033.03
2019-02-22T12:32:09.290Z,1033.04
2019-02-22T12:34:09.505Z,1032.93
2019-02-22T12:36:09.710Z,1032.89
2019-02-22T12:37:09.149Z,1032.90
2019-02-22T12:38:09.213Z,1032.90
2019-02-22T12:39:09.229Z,1032.96
2019-02-22T12:40:10.502Z,1032.97
2019-02-22T12:41:09.092Z,1033.04
2019-02-22T12:42:09.099Z,1032.99
2019-02-22T12:43:09.126Z,1032.94
2019-02-22T12:44:09.976Z,1032.99
2019-02-22T12:45:09.127Z,1032.98
2019-02-22T12:46:09.411Z,1033.03
2019-02-22T12:47:09.029Z,1033.09
2019-02-22T12:48:09.025Z,1033.09
2019-02-22T12:49:09.017Z,1033.10
2019-02-22T12:50:09.058Z,1033.17
2019-02-22T12:51:08.959Z,1033.10
2019-02-22T12:52:09.283Z,1033.15
2019-02-22T12:53:08.933Z,1033.21
2019-02-22T12:54:08.917Z,1033.13
2019-02-22T12:55:08.995Z,1033.18
2019-02-22T12:56:09.030Z,1033.20
2019-02-22T12:57:09.027Z,1033.21
2019-02-22T13:01:09.083Z,1033.17
2019-02-22T13:02:09.116Z,1033.24
2019-02-22T13:03:08.914Z,1033.30
2019-02-22T13:04:09.396Z,1033.32
2019-02-22T13:05:08.788Z,1033.33
2019-02-22T13:06:08.813Z,1033.25
2019-02-22T13:07:08.760Z,1033.36
2019-02-22T13:08:08.927Z,1033.40
2019-02-22T13:09:09.011Z,1033.34
2019-02-22T13:11:09.159Z,1033.32
2019-02-22T13:12:14.024Z,1033.27
2019-02-22T13:13:08.991Z,1033.36
2019-02-22T13:14:08.832Z,1033.37
2019-02-22T13:15:13.946Z,1033.40
2019-02-22T13:16:09.029Z,1033.48
2019-02-22T13:17:08.771Z,1032.77
2019-02-22T13:18:09.720Z,1032.99
2019-02-22T13:19:08.929Z,1032.93
2019-02-22T13:20:08.985Z,1033.62
2019-02-22T13:21:08.650Z,1033.57
2019-02-22T13:22:08.583Z,1033.56
2019-02-22T13:23:08.627Z,1033.59
2019-02-22T13:24:09.004Z,1033.49
2019-02-22T13:25:09.064Z,1033.44
2019-02-22T13:26:08.675Z,1033.42
2019-02-22T13:27:08.518Z,1033.35
2019-02-22T13:28:09.048Z,1033.34
2019-02-22T13:29:08.589Z,1033.31
2019-02-22T13:30:09.750Z,1033.31
2019-02-22T13:31:11.045Z,1033.29
2019-02-22T13:32:08.490Z,1033.37
2019-02-22T13:33:08.457Z,1033.35
2019-02-22T13:34:08.470Z,1033.39
2019-02-22T13:37:09.679Z,1033.40
2019-02-22T13:39:08.561Z,1033.46
2019-02-22T13:40:08.695Z,1033.45
2019-02-22T13:41:08.327Z,1033.47
2019-02-22T13:42:08.307Z,1033.51
2019-02-22T13:43:08.310Z,1033.46
2019-02-22T13:45:08.738Z,1033.47
2019-02-22T13:46:08.259Z,1033.40
2019-02-22T13:47:08.252Z,1033.41
2019-02-22T13:48:08.254Z,1033.44
2019-02-22T13:49:08.214Z,1033.44
2019-02-22T13:50:08.401Z,1033.37
2019-02-22T13:51:08.259Z,1033.40
2019-02-22T13:53:08.471Z,1033.42
2019-02-22T13:54:08.242Z,1033.49
2019-02-22T13:55:08.237Z,1033.50
2019-02-22T13:56:08.143Z,1033.55
2019-02-22T13:57:08.880Z,1033.65
2019-02-22T13:58:08.131Z,1033.65
2019-02-22T13:59:08.173Z,1033.71
2019-02-22T14:00:08.620Z,1033.74
2019-02-22T14:01:08.760Z,1033.71
2019-02-22T14:02:08.037Z,1033.70
2019-02-22T14:03:08.147Z,1033.69
2019-02-22T14:04:08.015Z,1033.73
2019-02-22T14:05:08.016Z,1033.78
2019-02-22T14:06:08.368Z,1033.78
2019-02-22T14:07:07.994Z,1033.73
2019-02-22T14:08:08.231Z,1033.74
2019-02-22T14:09:07.995Z,1033.74
2019-02-22T14:10:07.936Z,1033.74
2019-02-22T14:11:07.991Z,1033.70
2019-02-22T14:12:08.229Z,1033.70
2019-02-22T14:14:07.947Z,1033.69
2019-02-22T14:15:07.883Z,1033.66
2019-02-22T14:16:08.067Z,1033.76
2019-02-22T14:17:07.940Z,1033.72
2019-02-22T14:18:07.947Z,1033.71
2019-02-22T14:19:08.232Z,1033.68
2019-02-22T14:20:08.441Z,1033.64
2019-02-22T14:22:08.336Z,1033.59
2019-02-22T14:24:08.056Z,1033.70
2019-02-22T14:25:08.212Z,1033.68
2019-02-22T14:26:07.930Z,1033.70
2019-02-22T14:28:07.884Z,1033.69
2019-02-22T14:29:08.233Z,1033.76
2019-02-22T14:32:07.773Z,1033.96
2019-02-22T14:33:07.786Z,1034.04
2019-02-22T14:35:08.121Z,1034.02
2019-02-22T14:36:07.754Z,1034.01
2019-02-22T14:37:08.010Z,1033.97